Data for 03/26/2017

Time Sea-Level Adjusted Pressure Absolute Pressure Temperature Relative Humidity Dew Point   
(mb) (inHg) (mb) (inHg) (C) (F) (%) (C) (F)
00:05 1016 30 845 24.95 2.1 35.8 74 -2 28.4
00:10 1016 30 845 24.95 2.1 35.7 76 -1.8 28.7
00:15 1016 30 845 24.95 2.1 35.8 75 -1.8 28.7
00:20 1016 30 845 24.95 2.2 36 74 -2 28.5
00:25 1016 30 845 24.95 2.3 36.1 75 -1.8 28.8
00:30 1016 30 845 24.95 2.2 35.9 75 -1.7 28.9
00:35 1016 30 845 24.95 2 35.6 76 -1.8 28.7
00:40 1016 30 845 24.95 1.9 35.5 76 -1.9 28.6
00:45 1016 30 845 24.95 1.8 35.3 76 -1.9 28.5
00:50 1016 30 845 24.95 1.9 35.5 75 -2 28.3
00:55 1016 30 845 24.95 1.9 35.4 75 -2 28.4
01:00 1016 30 845 24.95 1.9 35.4 75 -2.1 28.2
01:05 1016 30 845 24.95 2 35.6 73 -2.3 27.9
01:10 1016 30 845 24.95 2.1 35.8 74 -2.1 28.3
01:15 1016 30 845 24.95 2 35.7 73 -2.2 28
01:20 1016 30 845 24.95 2.2 35.9 72 -2.3 27.9
01:25 1016 30 845 24.95 2.3 36.1 71 -2.5 27.5
01:30 1016 30 845 24.95 2.2 35.9 72 -2.4 27.7
01:35 1016 30 845 24.95 2 35.6 73 -2.4 27.7
01:40 1016 30 845 24.95 2 35.6 72 -2.5 27.4
01:45 1016 30 845 24.95 1.8 35.2 73 -2.5 27.5
01:50 1016 30 845 24.95 1.4 34.6 75 -2.6 27.3
01:55 1016 30 845 24.95 1.4 34.5 73 -3 26.5
02:00 1016 30 845 24.95 1.5 34.7 73 -2.9 26.8
02:05 1016 30 845 24.95 1.3 34.3 73 -2.9 26.7
02:10 1016 30 846 24.98 1.2 34.2 73 -3 26.6
02:15 1016 30 846 24.98 1.2 34.2 74 -3 26.6
02:20 1016 30 845 24.95 1.3 34.4 73 -3 26.6
02:25 1016 30 845 24.95 1.3 34.4 73 -2.9 26.7
02:30 1016 30 845 24.95 1.3 34.3 73 -3 26.7
02:35 1016 30 845 24.95 1.2 34.2 74 -2.9 26.8
02:40 1016 30 845 24.95 1.2 34.2 74 -2.8 26.9
02:45 1016 30 845 24.95 1 33.8 76 -2.7 27.1
02:50 1016 30 845 24.95 0.7 33.2 77 -2.9 26.8
02:55 1016 30 845 24.95 0.7 33.3 76 -3 26.6
03:00 1016 30 845 24.95 0.8 33.4 77 -2.8 27
03:05 1016 30 845 24.95 0.3 32.6 79 -2.9 26.7
03:10 1016 30 845 24.95 0.2 32.4 79 -3 26.6
03:15 1016 30 845 24.95 0.2 32.3 79 -3 26.7
03:20 1016 30 845 24.95 0.1 32.3 80 -2.9 26.7
03:25 1016 30 845 24.95 0.2 32.3 79 -3 26.6
03:30 1016 30 845 24.95 0.5 32.9 78 -2.9 26.7
03:35 1016 30 845 24.95 0.8 33.4 76 -2.9 26.7
03:40 1016 30 845 24.95 0.9 33.7 76 -2.9 26.8
03:45 1016 30 845 24.95 1.1 34.1 75 -2.8 26.9
03:50 1016 30 845 24.95 1.4 34.5 73 -3 26.6
03:55 1016 30 845 24.95 1.5 34.7 74 -2.7 27.1
04:00 1016 30 845 24.95 1.1 33.9 76 -2.7 27.1
04:05 1016 30 845 24.95 0.7 33.3 76 -3 26.6
04:10 1016 30 845 24.95 0.9 33.6 75 -3 26.6
04:15 1016 30 845 24.95 1.2 34.1 72 -3.3 26.1
04:20 1016 30 845 24.95 1.5 34.6 69 -3.6 25.6
04:25 1016 30 845 24.95 1.4 34.5 74 -2.7 27.1
04:30 1016 30 845 24.95 0.6 33.1 78 -2.8 26.9
04:35 1016 30 845 24.95 0.4 32.6 78 -3 26.5
04:40 1016 30 845 24.95 0.5 33 77 -3 26.6
04:45 1016 30 845 24.95 0.6 33 78 -2.9 26.7
04:50 1016 30 845 24.95 0.5 32.9 77 -3.1 26.4
04:55 1016 30 845 24.95 0.7 33.3 76 -3.1 26.5
05:00 1016 30 845 24.95 0.9 33.6 75 -3 26.5
05:05 1016 30 845 24.95 1.1 34 74 -3.1 26.4
05:10 1016 30 845 24.95 1.4 34.5 70 -3.5 25.7
05:15 1016 30 845 24.95 1.6 34.9 68 -3.7 25.4
05:20 1016 30 845 24.95 1.7 35.1 69 -3.5 25.8
05:25 1016 30 845 24.95 1.6 34.8 71 -3.1 26.5
05:30 1016 30 845 24.95 1.2 34.2 75 -2.8 27
05:35 1016 30 845 24.95 0.4 32.7 79 -2.8 26.9
05:40 1016 30 845 24.95 0.2 32.3 80 -3 26.7
05:45 1016 30 845 24.95 0.1 32.2 80 -3 26.6
05:50 1016 30 845 24.95 0 32 80 -3 26.6
05:55 1016 30 845 24.95 0 32.1 80 -3.1 26.5
06:00 1016 30 845 24.95 0.1 32.2 79 -3 26.5
06:05 1016 30 845 24.95 0.1 32.2 78 -3.3 26
06:10 1016 30 845 24.95 0.3 32.5 77 -3.2 26.2
06:15 1016 30 845 24.95 0.2 32.3 77 -3.3 26
06:20 1016 30 845 24.95 0.1 32.2 78 -3.4 25.9
06:25 1016 30 845 24.95 -0 31.9 79 -3.3 26
06:30 1016 30 845 24.95 -0.5 31.1 81 -3.4 25.8
06:35 1016 30 845 24.95 -0.7 30.8 81 -3.5 25.6
06:40 1016 30 845 24.95 -0.7 30.7 81 -3.5 25.6
06:45 1016 30 845 24.95 -0.8 30.6 81 -3.6 25.4
06:50 1016 30 845 24.95 -0.8 30.5 81 -3.7 25.3
06:55 1016 30 845 24.95 -0.8 30.5 81 -3.8 25.2
07:00 1016 30 845 24.95 -0.8 30.6 80 -3.8 25.2
07:05 1016 30 845 24.95 -0.7 30.8 79 -3.8 25.2
07:10 1016 30 845 24.95 -0.5 31.1 78 -3.8 25.1
07:15 1016 30 845 24.95 -0.3 31.4 77 -3.8 25.1
07:20 1016 30 846 24.98 -0.2 31.7 77 -3.8 25.2
07:25 1016 30 846 24.98 0 32 76 -3.8 25.2
07:30 1017 30.03 846 24.98 0.1 32.2 76 -3.7 25.3
07:35 1017 30.03 846 24.98 0.3 32.6 74 -3.7 25.4
07:40 1017 30.03 846 24.98 0.3 32.6 74 -3.7 25.4
07:45 1017 30.03 846 24.98 0.4 32.8 74 -3.6 25.4
07:50 1017 30.03 846 24.98 0.4 32.8 75 -3.6 25.5
07:55 1017 30.03 846 24.98 0.5 32.9 74 -3.7 25.4
08:00 1017 30.03 846 24.98 0.6 33.1 74 -3.5 25.6
08:05 1017 30.03 846 24.98 0.6 33.1 73 -3.6 25.5
08:10 1017 30.03 846 24.98 0.6 33.1 74 -3.6 25.6
08:15 1017 30.03 846 24.98 0.6 33.1 73 -3.6 25.5
08:20 1017 30.03 846 24.98 0.7 33.2 73 -3.6 25.5
08:25 1017 30.03 846 24.98 0.7 33.3 73 -3.6 25.5
08:30 1017 30.03 846 24.98 0.8 33.5 73 -3.5 25.7
08:35 1017 30.03 846 24.98 0.9 33.6 72 -3.6 25.5
08:40 1017 30.03 846 24.98 1 33.7 72 -3.5 25.6
08:45 1017 30.03 846 24.98 1.1 33.9 71 -3.6 25.5
08:50 1017 30.03 846 24.98 1.2 34.1 71 -3.5 25.7
08:55 1017 30.03 846 24.98 1.4 34.4 71 -3.3 26
09:00 1017 30.03 846 24.98 1.4 34.6 72 -3 26.5
09:05 1017 30.03 846 24.98 1.6 35 72 -3 26.7
09:10 1017 30.03 846 24.98 1.8 35.3 70 -3 26.7
09:15 1017 30.03 846 24.98 2.1 35.8 69 -3.1 26.5
09:20 1017 30.03 846 24.98 2.3 36.2 67 -3.3 26.1
09:25 1017 30.03 846 24.98 2.3 36.1 66 -3.4 25.9
09:30 1017 30.03 846 24.98 2.5 36.5 66 -3.2 26.2
09:35 1017 30.03 846 24.98 2.8 37.1 63 -3.4 25.8
09:40 1017 30.03 846 24.98 3.6 38.5 61 -3.3 26.1
09:45 1017 30.03 846 24.98 4.2 39.6 58 -3.2 26.3
09:50 1017 30.03 846 24.98 4.4 40 57 -3.4 25.9
09:55 1016 30 846 24.98 5.1 41.2 53 -3.7 25.3
10:00 1016 30 846 24.98 5.8 42.4 50 -3.9 25.1
10:05 1016 30 846 24.98 6.2 43.2 51 -3.2 26.3
10:10 1016 30 846 24.98 5.7 42.3 50 -4 24.9
10:15 1016 30 846 24.98 5.6 42.1 50 -3.8 25.1
10:20 1016 30 846 24.98 5.9 42.5 50 -3.7 25.3
10:25 1017 30.03 846 24.98 5.6 42.1 51 -3.7 25.4
10:30 1016 30 846 24.98 5.7 42.3 50 -3.9 25
10:35 1016 30 846 24.98 5.9 42.6 47 -4.4 24
10:40 1016 30 846 24.98 6.2 43.2 45 -4.9 23.2
10:45 1016 30 846 24.98 6.6 43.8 46 -4.3 24.2
10:50 1016 30 845 24.95 6.6 44 45 -4.3 24.2
10:55 1016 30 845 24.95 6.8 44.3 45 -4.4 24
11:00 1016 30 845 24.95 6.6 44 43 -5 23.1
11:05 1016 30 845 24.95 7.7 45.9 40 -5 23.1
11:10 1016 30 845 24.95 8.2 46.8 40 -4.5 24
11:15 1016 30 845 24.95 7.3 45.1 45 -3.8 25.2
11:20 1016 30 845 24.95 6.6 43.9 45 -4.5 23.9
11:25 1016 30 845 24.95 7 44.5 42 -5 23.1
11:30 1016 30 845 24.95 7 44.6 43 -4.6 23.7
11:35 1016 30 845 24.95 7.5 45.5 41 -4.9 23.2
11:40 1016 30 845 24.95 8.1 46.5 39 -4.9 23.1
11:45 1016 30 845 24.95 7.8 46 40 -4.9 23.3
11:50 1016 30 845 24.95 8.1 46.5 38 -5.2 22.6
11:55 1016 30 845 24.95 8.3 47 39 -4.8 23.4
12:00 1016 30 845 24.95 8.4 47.1 40 -4.3 24.3
12:05 1016 30 845 24.95 8.3 46.9 37 -5.4 22.4
12:10 1016 30 845 24.95 9.1 48.3 38 -4.7 23.6
12:15 1016 30 845 24.95 9.6 49.2 35 -5.1 22.8
12:20 1016 30 845 24.95 9.2 48.5 36 -5.2 22.7
12:25 1015 29.97 845 24.95 9.7 49.5 33 -5.8 21.5
12:30 1015 29.97 845 24.95 10 50 33 -5.5 22.1
12:35 1015 29.97 844 24.92 10.5 50.8 33 -5.3 22.5
12:40 1015 29.97 844 24.92 10.3 50.6 33 -5.2 22.6
12:45 1015 29.97 844 24.92 9.9 49.7 33 -5.6 21.9
12:50 1015 29.97 844 24.92 10.2 50.3 32 -5.7 21.8
12:55 1015 29.97 844 24.92 10.1 50.2 32 -5.8 21.6
13:00 1015 29.97 844 24.92 9.4 49 33 -5.9 21.4
13:05 1015 29.97 844 24.92 10.6 51.1 31 -5.7 21.8
13:10 1015 29.97 844 24.92 11.1 52 31 -5.4 22.3
13:15 1015 29.97 844 24.92 10.7 51.3 34 -4.5 23.9
13:20 1014 29.94 844 24.92 8.7 47.6 36 -5.7 21.7
13:25 1014 29.94 844 24.92 9.5 49.1 33 -5.9 21.3
13:30 1014 29.94 844 24.92 9.8 49.6 34 -5.4 22.2
13:35 1014 29.94 843 24.89 9.1 48.5 33 -6.3 20.7
13:40 1014 29.94 843 24.89 9.9 49.8 33 -5.8 21.6
13:45 1014 29.94 843 24.89 10.5 50.9 34 -4.9 23.2
13:50 1014 29.94 843 24.89 10.8 51.5 32 -5.3 22.5
13:55 1014 29.94 843 24.89 10.3 50.6 32 -5.8 21.6
14:00 1014 29.94 843 24.89 11.4 52.5 30 -5.5 22
14:05 1014 29.94 843 24.89 11.5 52.7 30 -5.3 22.4
14:10 1014 29.94 843 24.89 11.2 52.1 31 -5.4 22.3
14:15 1014 29.94 843 24.89 10.9 51.6 30 -5.9 21.3
14:20 1014 29.94 843 24.89 11.6 52.8 29 -5.9 21.4
14:25 1014 29.94 843 24.89 11.7 53.1 28 -6.1 21
14:30 1014 29.94 843 24.89 12.2 53.9 29 -5.4 22.2
14:35 1014 29.94 843 24.89 10.8 51.4 31 -5.7 21.7
14:40 1014 29.94 843 24.89 11 51.7 30 -6 21.1
14:45 1014 29.94 843 24.89 11.4 52.5 30 -5.5 22.1
14:50 1014 29.94 843 24.89 10.7 51.3 29 -6.5 20.4
14:55 1014 29.94 843 24.89 11.1 52 29 -6.1 21
15:00 1013 29.91 843 24.89 11.5 52.7 28 -6.5 20.3
15:05 1013 29.91 843 24.89 12.3 54.1 27 -6.2 20.8
15:10 1013 29.91 843 24.89 12.2 53.9 26 -6.7 19.9
15:15 1013 29.91 843 24.89 12.4 54.3 26 -6.4 20.4
15:20 1013 29.91 843 24.89 12.1 53.8 26 -6.8 19.7
15:25 1013 29.91 843 24.89 12.5 54.4 26 -6.7 19.9
15:30 1013 29.91 842 24.86 12.8 55 25 -6.7 20
15:35 1013 29.91 843 24.89 12.2 54 27 -6.3 20.7
15:40 1013 29.91 842 24.86 11.7 53.1 27 -6.5 20.3
15:45 1013 29.91 842 24.86 11.8 53.3 27 -6.6 20.2
15:50 1013 29.91 842 24.86 12.6 54.6 25 -6.8 19.8
15:55 1013 29.91 842 24.86 12.7 54.8 26 -6.4 20.5
16:00 1013 29.91 842 24.86 12.5 54.6 26 -6.4 20.4
16:05 1013 29.91 842 24.86 11.2 52.2 27 -6.9 19.6
16:10 1013 29.91 842 24.86 11.2 52.2 26 -7.8 18
16:15 1013 29.91 842 24.86 11.7 53.1 24 -8.1 17.5
16:20 1013 29.91 842 24.86 12.2 53.9 23 -8.4 16.8
16:25 1013 29.91 842 24.86 12.7 54.9 23 -8.1 17.5
16:30 1013 29.91 842 24.86 12.4 54.4 24 -7.7 18.2
16:35 1013 29.91 842 24.86 12 53.7 24 -7.9 17.7
16:40 1013 29.91 842 24.86 11.8 53.2 24 -8 17.6
16:45 1013 29.91 842 24.86 12.1 53.7 24 -8 17.6
16:50 1013 29.91 842 24.86 11.7 53.1 24 -7.9 17.8
16:55 1013 29.91 842 24.86 11.4 52.6 25 -8.1 17.4
17:00 1013 29.91 842 24.86 11.2 52.1 25 -8 17.6
17:05 1013 29.91 842 24.86 11.2 52.2 25 -8.3 17.1
17:10 1013 29.91 842 24.86 11.5 52.8 24 -8.2 17.3
17:15 1013 29.91 842 24.86 11.7 53.1 25 -7.9 17.8
17:20 1013 29.91 842 24.86 11.4 52.6 25 -7.9 17.8
17:25 1013 29.91 842 24.86 11.6 52.8 25 -7.9 17.8
17:30 1013 29.91 842 24.86 11.3 52.4 25 -7.7 18.1
17:35 1013 29.91 842 24.86 11.2 52.1 26 -7.4 18.7
17:40 1013 29.91 842 24.86 11 51.8 26 -7.6 18.4
17:45 1013 29.91 842 24.86 11.1 52 26 -7.7 18.1
17:50 1013 29.91 842 24.86 11 51.8 25 -8.1 17.3
17:55 1013 29.91 842 24.86 10.9 51.6 25 -8.1 17.4
18:00 1013 29.91 842 24.86 10.7 51.3 26 -8 17.5
18:05 1013 29.91 842 24.86 10.7 51.2 26 -8 17.6
18:10 1013 29.91 842 24.86 10.8 51.5 25 -8.2 17.2
18:15 1013 29.91 842 24.86 10.6 51 26 -8.2 17.2
18:20 1013 29.91 842 24.86 10.5 50.9 27 -7.9 17.7
18:25 1013 29.91 842 24.86 10.6 51 26 -8 17.6
18:30 1013 29.91 842 24.86 10.5 51 26 -7.9 17.7
18:35 1013 29.91 842 24.86 10.3 50.6 23 -10 14.1
18:40 1013 29.91 842 24.86 10.3 50.5 22 -10.3 13.4
18:45 1013 29.91 842 24.86 10.2 50.4 24 -9.7 14.5
18:50 1013 29.91 842 24.86 10.1 50.1 25 -9.2 15.4
18:55 1013 29.91 842 24.86 9.9 49.7 26 -8.7 16.3
19:00 1013 29.91 842 24.86 9.7 49.5 26 -8.7 16.3
19:05 1013 29.91 842 24.86 9.6 49.2 27 -8.7 16.4
19:10 1013 29.91 842 24.86 9.4 48.9 28 -8.1 17.3
19:15 1013 29.91 842 24.86 9.2 48.6 27 -9 15.9
19:20 1013 29.91 842 24.86 9.2 48.5 27 -9 15.8
19:25 1013 29.91 842 24.86 9.1 48.5 27 -9 15.7
19:30 1013 29.91 842 24.86 9 48.2 27 -9.1 15.7
19:35 1013 29.91 842 24.86 8.9 48.1 27 -8.9 16
19:40 1013 29.91 842 24.86 8.9 47.9 29 -8.4 16.9
19:45 1013 29.91 842 24.86 8.7 47.6 29 -8.4 16.8
19:50 1013 29.91 842 24.86 8.6 47.4 30 -7.9 17.8
19:55 1013 29.91 842 24.86 8.5 47.2 29 -8.4 16.9
20:00 1013 29.91 842 24.86 8.5 47.2 30 -8.2 17.3
20:05 1013 29.91 842 24.86 8.5 47.2 29 -8.6 16.5
20:10 1013 29.91 842 24.86 8.5 47.2 29 -8.4 16.8
20:15 1013 29.91 842 24.86 8.3 47 29 -8.5 16.7
20:20 1013 29.91 842 24.86 8.3 46.9 31 -8 17.5
20:25 1013 29.91 842 24.86 8.2 46.7 29 -9 15.8
20:30 1013 29.91 842 24.86 8.3 46.9 28 -9.4 15.2
20:35 1013 29.91 842 24.86 8.4 47.1 28 -9.2 15.4
20:40 1013 29.91 842 24.86 8.4 47.1 28 -9.2 15.4
20:45 1013 29.91 842 24.86 8.3 47 28 -9 15.8
20:50 1013 29.91 842 24.86 8.2 46.8 29 -9 15.9
20:55 1013 29.91 842 24.86 8.2 46.8 28 -9.1 15.6
21:00 1013 29.91 842 24.86 8.2 46.7 29 -8.6 16.4
21:05 1013 29.91 842 24.86 8.2 46.7 29 -8.8 16.1
21:10 1013 29.91 842 24.86 8.2 46.7 29 -8.9 16
21:15 1013 29.91 842 24.86 8.1 46.7 30 -8.5 16.7
21:20 1013 29.91 842 24.86 8.2 46.7 29 -8.6 16.5
21:25 1013 29.91 842 24.86 8.1 46.7 30 -8.5 16.8
21:30 1013 29.91 842 24.86 8 46.5 30 -8.4 16.9
21:35 1013 29.91 842 24.86 7.9 46.3 30 -8.8 16.2
21:40 1013 29.91 842 24.86 8.1 46.5 29 -8.7 16.3
21:45 1013 29.91 842 24.86 8.1 46.6 29 -8.8 16.2
21:50 1013 29.91 842 24.86 8.1 46.7 31 -8.1 17.4
21:55 1013 29.91 842 24.86 8 46.4 31 -8.1 17.3
22:00 1013 29.91 842 24.86 8.1 46.5 33 -7.3 18.8
22:05 1013 29.91 843 24.89 7.8 46 33 -7.6 18.3
22:10 1013 29.91 843 24.89 7.7 45.8 36 -6.4 20.5
22:15 1013 29.91 843 24.89 7.5 45.5 35 -6.9 19.5
22:20 1013 29.91 843 24.89 7.5 45.5 37 -6.1 21
22:25 1013 29.91 843 24.89 7.3 45.2 38 -6.2 20.8
22:30 1013 29.91 843 24.89 7.3 45.2 39 -5.9 21.4
22:35 1013 29.91 843 24.89 7.1 44.8 39 -6 21.1
22:40 1013 29.91 843 24.89 7.1 44.8 39 -5.9 21.4
22:45 1014 29.94 843 24.89 6.9 44.5 43 -4.6 23.6
22:50 1013 29.91 843 24.89 6.5 43.6 45 -4.6 23.7
22:55 1013 29.91 843 24.89 6.2 43.2 45 -4.9 23.2
23:00 1013 29.91 842 24.86 6.3 43.4 44 -4.9 23.2
23:05 1013 29.91 842 24.86 6.6 43.8 44 -4.8 23.3
23:10 1013 29.91 842 24.86 6.4 43.5 45 -4.6 23.7
23:15 1013 29.91 842 24.86 6.3 43.3 45 -4.7 23.6
23:20 1013 29.91 842 24.86 6.3 43.4 45 -4.6 23.7
23:25 1013 29.91 842 24.86 6.4 43.5 45 -4.6 23.7
23:30 1013 29.91 842 24.86 6.1 43.1 47 -4.2 24.5
23:35 1013 29.91 842 24.86 5.9 42.6 50 -3.8 25.2
23:40 1013 29.91 842 24.86 5.7 42.2 51 -3.6 25.4
23:45 1013 29.91 842 24.86 5.6 42.1 52 -3.6 25.5
23:50 1013 29.91 842 24.86 5.5 41.9 52 -3.6 25.5
23:55 1013 29.91 842 24.86 5.5 41.9 52 -3.6 25.6
24:00 1013 29.91 842 24.86 5.4 41.8 52 -3.6 25.6